Terminal Aerodrome Forecast
Issued by NWS Atlanta, GA

Home | Current Version | Previous Version | Text Only | Print | Product List | Glossary On
Versions: 1 2 3 4 5 6 7 8 9 10 11 12 13 14 15 16 17
211
FTUS42 KFFC 231303 AAA
TAFCSG
TAF AMD
KCSG 231303Z 2313/2412 08005KT P6SM SCT100
      TEMPO 2313/2315 1SM BR BKN005
     FM231500 10004KT P6SM BKN035
     FM231800 14007KT P6SM BKN050 BKN100
     FM240000 16006KT P6SM SCT050 BKN120
     FM240500 13004KT P6SM OVC100
     FM240900 14002KT P6SM OVC050=

USA.gov is the U.S. government's official web portal to all federal, state and local government web resources and services.